sensor_id;sensor_type;location;lat;lon;timestamp;pressure;altitude;pressure_sealevel;temperature;humidity
73453;BME280;61687;56.232;43.854;2023-07-16T00:00:12;100047.66;;;15.92;76.48
73453;BME280;61687;56.232;43.854;2023-07-16T00:02:38;100049.63;;;15.87;76.89
73453;BME280;61687;56.232;43.854;2023-07-16T00:05:04;100052.81;;;15.86;77.02
73453;BME280;61687;56.232;43.854;2023-07-16T00:07:31;100050.88;;;15.83;77.11
73453;BME280;61687;56.232;43.854;2023-07-16T00:09:57;100055.59;;;15.82;77.22
73453;BME280;61687;56.232;43.854;2023-07-16T00:12:23;100054.03;;;15.81;77.23
73453;BME280;61687;56.232;43.854;2023-07-16T00:14:48;100061.59;;;15.73;78.04
73453;BME280;61687;56.232;43.854;2023-07-16T00:17:14;100063.63;;;15.69;78.15
73453;BME280;61687;56.232;43.854;2023-07-16T00:19:40;100064.00;;;15.71;77.98
73453;BME280;61687;56.232;43.854;2023-07-16T00:22:06;100064.06;;;15.64;78.54
73453;BME280;61687;56.232;43.854;2023-07-16T00:24:32;100060.13;;;15.65;78.40
73453;BME280;61687;56.232;43.854;2023-07-16T00:26:58;100066.41;;;15.66;78.33
73453;BME280;61687;56.232;43.854;2023-07-16T00:29:24;100059.66;;;15.70;78.15
73453;BME280;61687;56.232;43.854;2023-07-16T00:31:50;100070.25;;;15.76;77.89
73453;BME280;61687;56.232;43.854;2023-07-16T00:34:15;100071.00;;;15.83;77.57
73453;BME280;61687;56.232;43.854;2023-07-16T00:36:41;100064.63;;;15.90;77.24
73453;BME280;61687;56.232;43.854;2023-07-16T00:39:07;100070.16;;;15.90;77.21
73453;BME280;61687;56.232;43.854;2023-07-16T00:41:33;100073.31;;;15.92;77.06
73453;BME280;61687;56.232;43.854;2023-07-16T00:43:59;100070.91;;;15.94;77.10
73453;BME280;61687;56.232;43.854;2023-07-16T00:46:25;100069.72;;;15.95;77.20
73453;BME280;61687;56.232;43.854;2023-07-16T00:48:52;100072.84;;;15.97;77.03
73453;BME280;61687;56.232;43.854;2023-07-16T00:51:18;100074.78;;;16.00;77.04
73453;BME280;61687;56.232;43.854;2023-07-16T00:53:45;100080.25;;;16.08;76.73
73453;BME280;61687;56.232;43.854;2023-07-16T00:56:16;100076.63;;;16.14;76.61
73453;BME280;61687;56.232;43.854;2023-07-16T00:58:44;100069.91;;;16.15;76.68
73453;BME280;61687;56.232;43.854;2023-07-16T01:01:10;100082.53;;;16.16;76.57
73453;BME280;61687;56.232;43.854;2023-07-16T01:03:36;100074.19;;;16.20;76.43
73453;BME280;61687;56.232;43.854;2023-07-16T01:06:16;100077.78;;;16.17;76.74
73453;BME280;61687;56.232;43.854;2023-07-16T01:08:52;100078.22;;;16.15;76.70
73453;BME280;61687;56.232;43.854;2023-07-16T01:11:22;100078.97;;;16.16;76.75
73453;BME280;61687;56.232;43.854;2023-07-16T01:13:49;100074.66;;;16.15;76.80
73453;BME280;61687;56.232;43.854;2023-07-16T01:16:23;100082.56;;;16.13;76.80
73453;BME280;61687;56.232;43.854;2023-07-16T01:18:50;100080.66;;;16.06;77.37
73453;BME280;61687;56.232;43.854;2023-07-16T01:21:19;100077.13;;;16.06;77.26
73453;BME280;61687;56.232;43.854;2023-07-16T01:29:34;100079.19;;;16.33;76.63
73453;BME280;61687;56.232;43.854;2023-07-16T01:32:07;100075.94;;;16.41;76.36
73453;BME280;61687;56.232;43.854;2023-07-16T01:34:36;100080.59;;;16.48;76.21
73453;BME280;61687;56.232;43.854;2023-07-16T01:37:02;100079.78;;;16.51;76.16
73453;BME280;61687;56.232;43.854;2023-07-16T01:39:30;100080.50;;;16.55;76.05
73453;BME280;61687;56.232;43.854;2023-07-16T01:41:56;100078.59;;;16.49;76.29
73453;BME280;61687;56.232;43.854;2023-07-16T01:44:22;100083.72;;;16.50;76.04
73453;BME280;61687;56.232;43.854;2023-07-16T01:47:15;100088.44;;;16.53;76.04
73453;BME280;61687;56.232;43.854;2023-07-16T01:49:39;100081.72;;;16.51;76.21
73453;BME280;61687;56.232;43.854;2023-07-16T01:52:06;100088.47;;;16.50;76.12
73453;BME280;61687;56.232;43.854;2023-07-16T01:54:32;100086.75;;;16.59;76.11
73453;BME280;61687;56.232;43.854;2023-07-16T01:56:58;100092.59;;;16.69;75.56
73453;BME280;61687;56.232;43.854;2023-07-16T01:59:24;100085.00;;;16.77;75.50
73453;BME280;61687;56.232;43.854;2023-07-16T02:01:52;100084.03;;;16.87;75.45
73453;BME280;61687;56.232;43.854;2023-07-16T02:04:18;100086.31;;;16.96;75.10
73453;BME280;61687;56.232;43.854;2023-07-16T02:06:44;100095.00;;;16.94;74.91
73453;BME280;61687;56.232;43.854;2023-07-16T02:09:10;100086.44;;;16.85;74.99
73453;BME280;61687;56.232;43.854;2023-07-16T02:11:36;100091.69;;;16.76;75.47
73453;BME280;61687;56.232;43.854;2023-07-16T02:14:01;100089.63;;;16.83;75.29
73453;BME280;61687;56.232;43.854;2023-07-16T02:16:27;100100.13;;;16.96;74.91
73453;BME280;61687;56.232;43.854;2023-07-16T02:18:53;100090.91;;;17.06;74.49
73453;BME280;61687;56.232;43.854;2023-07-16T02:21:19;100098.34;;;17.13;74.37
73453;BME280;61687;56.232;43.854;2023-07-16T02:23:46;100103.47;;;17.14;74.33
73453;BME280;61687;56.232;43.854;2023-07-16T02:26:12;100100.69;;;17.14;74.40
73453;BME280;61687;56.232;43.854;2023-07-16T02:28:38;100104.38;;;17.04;74.70
73453;BME280;61687;56.232;43.854;2023-07-16T02:31:04;100104.75;;;17.06;74.62
73453;BME280;61687;56.232;43.854;2023-07-16T02:33:30;100096.38;;;17.13;74.53
73453;BME280;61687;56.232;43.854;2023-07-16T02:35:56;100106.91;;;17.22;74.24
73453;BME280;61687;56.232;43.854;2023-07-16T02:38:21;100111.41;;;17.12;74.37
73453;BME280;61687;56.232;43.854;2023-07-16T02:40:48;100113.97;;;16.96;75.12
73453;BME280;61687;56.232;43.854;2023-07-16T02:43:14;100112.53;;;16.87;75.47
73453;BME280;61687;56.232;43.854;2023-07-16T02:45:41;100110.03;;;16.93;75.46
73453;BME280;61687;56.232;43.854;2023-07-16T02:48:07;100110.28;;;17.06;75.03
73453;BME280;61687;56.232;43.854;2023-07-16T02:50:37;100113.06;;;17.06;75.35
73453;BME280;61687;56.232;43.854;2023-07-16T02:53:07;100119.50;;;16.99;75.63
73453;BME280;61687;56.232;43.854;2023-07-16T02:55:34;100115.94;;;16.99;75.59
73453;BME280;61687;56.232;43.854;2023-07-16T02:58:01;100118.91;;;17.12;75.30
73453;BME280;61687;56.232;43.854;2023-07-16T03:00:30;100119.50;;;17.27;74.72
73453;BME280;61687;56.232;43.854;2023-07-16T03:02:57;100123.81;;;17.28;75.03
73453;BME280;61687;56.232;43.854;2023-07-16T03:05:24;100121.72;;;17.36;74.78
73453;BME280;61687;56.232;43.854;2023-07-16T03:07:50;100119.13;;;17.25;75.38
73453;BME280;61687;56.232;43.854;2023-07-16T03:10:16;100115.22;;;17.22;75.64
73453;BME280;61687;56.232;43.854;2023-07-16T03:12:42;100113.91;;;17.30;75.37
73453;BME280;61687;56.232;43.854;2023-07-16T03:15:08;100118.88;;;17.43;75.17
73453;BME280;61687;56.232;43.854;2023-07-16T03:17:34;100117.94;;;17.50;75.10
73453;BME280;61687;56.232;43.854;2023-07-16T03:20:00;100121.22;;;17.68;74.79
73453;BME280;61687;56.232;43.854;2023-07-16T03:22:26;100127.88;;;17.74;74.76
73453;BME280;61687;56.232;43.854;2023-07-16T03:24:51;100122.25;;;17.78;74.83
73453;BME280;61687;56.232;43.854;2023-07-16T03:27:17;100126.19;;;17.81;74.76
73453;BME280;61687;56.232;43.854;2023-07-16T03:29:43;100127.50;;;17.96;74.57
73453;BME280;61687;56.232;43.854;2023-07-16T03:32:12;100134.25;;;17.95;74.37
73453;BME280;61687;56.232;43.854;2023-07-16T03:34:38;100124.97;;;18.06;74.19
73453;BME280;61687;56.232;43.854;2023-07-16T03:37:04;100133.25;;;18.09;74.11
73453;BME280;61687;56.232;43.854;2023-07-16T03:39:31;100123.03;;;18.26;73.63
73453;BME280;61687;56.232;43.854;2023-07-16T03:41:57;100122.16;;;18.29;73.53
73453;BME280;61687;56.232;43.854;2023-07-16T03:44:23;100127.19;;;18.14;74.16
73453;BME280;61687;56.232;43.854;2023-07-16T03:46:49;100125.22;;;18.15;74.35
73453;BME280;61687;56.232;43.854;2023-07-16T03:49:15;100132.34;;;18.16;74.51
73453;BME280;61687;56.232;43.854;2023-07-16T03:51:41;100129.19;;;18.14;74.56
73453;BME280;61687;56.232;43.854;2023-07-16T03:54:09;100130.13;;;18.07;74.63
73453;BME280;61687;56.232;43.854;2023-07-16T03:56:34;100131.94;;;18.14;74.69
73453;BME280;61687;56.232;43.854;2023-07-16T03:59:02;100127.66;;;18.33;74.12
73453;BME280;61687;56.232;43.854;2023-07-16T04:01:27;100128.84;;;18.52;73.34
73453;BME280;61687;56.232;43.854;2023-07-16T04:03:53;100118.56;;;18.53;73.52
73453;BME280;61687;56.232;43.854;2023-07-16T04:06:20;100133.41;;;18.63;73.50
73453;BME280;61687;56.232;43.854;2023-07-16T04:08:46;100129.28;;;18.71;72.84
73453;BME280;61687;56.232;43.854;2023-07-16T04:11:12;100130.06;;;18.71;72.88
73453;BME280;61687;56.232;43.854;2023-07-16T04:13:37;100124.66;;;18.64;73.11
73453;BME280;61687;56.232;43.854;2023-07-16T04:16:03;100124.59;;;18.68;72.75
73453;BME280;61687;56.232;43.854;2023-07-16T04:18:29;100123.59;;;18.78;72.87
73453;BME280;61687;56.232;43.854;2023-07-16T04:20:55;100113.09;;;18.86;72.56
73453;BME280;61687;56.232;43.854;2023-07-16T04:23:22;100114.66;;;18.87;72.71
73453;BME280;61687;56.232;43.854;2023-07-16T04:25:51;100110.47;;;18.79;72.59
73453;BME280;61687;56.232;43.854;2023-07-16T04:28:17;100117.13;;;18.65;72.81
73453;BME280;61687;56.232;43.854;2023-07-16T04:30:43;100109.06;;;18.50;73.25
73453;BME280;61687;56.232;43.854;2023-07-16T04:33:08;100113.78;;;18.53;73.33
73453;BME280;61687;56.232;43.854;2023-07-16T04:35:35;100118.47;;;18.56;73.35
73453;BME280;61687;56.232;43.854;2023-07-16T04:38:01;100121.81;;;18.68;73.38
73453;BME280;61687;56.232;43.854;2023-07-16T04:40:28;100124.59;;;18.68;73.31
73453;BME280;61687;56.232;43.854;2023-07-16T04:42:54;100116.53;;;18.73;73.25
73453;BME280;61687;56.232;43.854;2023-07-16T04:45:20;100117.19;;;18.81;72.93
73453;BME280;61687;56.232;43.854;2023-07-16T04:47:46;100121.00;;;18.87;73.13
73453;BME280;61687;56.232;43.854;2023-07-16T04:50:11;100120.06;;;18.94;72.99
73453;BME280;61687;56.232;43.854;2023-07-16T04:52:37;100119.53;;;19.03;72.91
73453;BME280;61687;56.232;43.854;2023-07-16T04:55:04;100118.41;;;19.17;72.53
73453;BME280;61687;56.232;43.854;2023-07-16T04:57:29;100113.03;;;19.26;71.66
73453;BME280;61687;56.232;43.854;2023-07-16T04:59:55;100114.94;;;19.29;71.57
73453;BME280;61687;56.232;43.854;2023-07-16T05:02:21;100121.47;;;19.23;71.39
73453;BME280;61687;56.232;43.854;2023-07-16T05:04:47;100102.53;;;19.34;71.17
73453;BME280;61687;56.232;43.854;2023-07-16T05:07:15;100115.13;;;19.55;70.57
73453;BME280;61687;56.232;43.854;2023-07-16T05:09:42;100116.66;;;19.73;70.00
73453;BME280;61687;56.232;43.854;2023-07-16T05:12:08;100111.03;;;19.77;69.76
73453;BME280;61687;56.232;43.854;2023-07-16T05:14:44;100110.69;;;19.74;70.01
73453;BME280;61687;56.232;43.854;2023-07-16T05:17:11;100111.22;;;19.69;70.32
73453;BME280;61687;56.232;43.854;2023-07-16T05:19:37;100107.31;;;19.50;69.70
73453;BME280;61687;56.232;43.854;2023-07-16T05:22:02;100112.84;;;19.50;69.72
73453;BME280;61687;56.232;43.854;2023-07-16T05:24:28;100112.69;;;19.41;70.11
73453;BME280;61687;56.232;43.854;2023-07-16T05:26:54;100110.69;;;19.41;70.29
73453;BME280;61687;56.232;43.854;2023-07-16T05:29:20;100110.19;;;19.47;70.21
73453;BME280;61687;56.232;43.854;2023-07-16T05:31:45;100106.00;;;19.38;70.38
73453;BME280;61687;56.232;43.854;2023-07-16T05:34:12;100106.97;;;19.48;70.42
73453;BME280;61687;56.232;43.854;2023-07-16T05:36:38;100110.25;;;19.59;70.19
73453;BME280;61687;56.232;43.854;2023-07-16T05:39:03;100108.69;;;19.75;69.24
73453;BME280;61687;56.232;43.854;2023-07-16T05:41:29;100105.81;;;19.95;68.17
73453;BME280;61687;56.232;43.854;2023-07-16T05:43:55;100103.88;;;20.09;68.04
73453;BME280;61687;56.232;43.854;2023-07-16T05:46:21;100103.47;;;20.23;68.46
73453;BME280;61687;56.232;43.854;2023-07-16T05:48:46;100107.94;;;20.21;67.92
73453;BME280;61687;56.232;43.854;2023-07-16T05:51:12;100110.13;;;20.42;67.95
73453;BME280;61687;56.232;43.854;2023-07-16T05:53:38;100102.81;;;20.62;66.69
73453;BME280;61687;56.232;43.854;2023-07-16T05:56:04;100101.53;;;20.92;66.21
73453;BME280;61687;56.232;43.854;2023-07-16T05:58:29;100103.09;;;21.19;65.45
73453;BME280;61687;56.232;43.854;2023-07-16T06:00:55;100100.75;;;21.43;64.88
73453;BME280;61687;56.232;43.854;2023-07-16T06:03:21;100104.16;;;21.61;62.38
73453;BME280;61687;56.232;43.854;2023-07-16T06:05:46;100093.38;;;21.50;60.88
73453;BME280;61687;56.232;43.854;2023-07-16T06:08:12;100105.75;;;21.49;60.80
73453;BME280;61687;56.232;43.854;2023-07-16T06:10:38;100100.38;;;21.54;61.01
73453;BME280;61687;56.232;43.854;2023-07-16T06:13:04;100104.75;;;21.42;60.19
73453;BME280;61687;56.232;43.854;2023-07-16T06:15:30;100111.25;;;21.39;60.28
73453;BME280;61687;56.232;43.854;2023-07-16T06:17:56;100097.28;;;21.52;59.67
73453;BME280;61687;56.232;43.854;2023-07-16T06:20:21;100106.06;;;21.51;57.82
73453;BME280;61687;56.232;43.854;2023-07-16T06:22:47;100108.97;;;21.73;58.32
73453;BME280;61687;56.232;43.854;2023-07-16T06:25:13;100104.00;;;21.90;56.70
73453;BME280;61687;56.232;43.854;2023-07-16T06:27:38;100101.69;;;22.11;55.45
73453;BME280;61687;56.232;43.854;2023-07-16T06:30:05;100111.03;;;22.17;53.84
73453;BME280;61687;56.232;43.854;2023-07-16T06:32:31;100121.31;;;22.20;53.14
73453;BME280;61687;56.232;43.854;2023-07-16T06:34:57;100112.03;;;22.23;52.98
73453;BME280;61687;56.232;43.854;2023-07-16T06:37:23;100118.97;;;22.19;52.90
73453;BME280;61687;56.232;43.854;2023-07-16T06:39:49;100110.38;;;22.13;53.06
73453;BME280;61687;56.232;43.854;2023-07-16T06:42:15;100120.47;;;22.10;52.44
73453;BME280;61687;56.232;43.854;2023-07-16T06:44:41;100117.03;;;22.28;52.35
73453;BME280;61687;56.232;43.854;2023-07-16T06:47:07;100113.69;;;22.56;52.99
73453;BME280;61687;56.232;43.854;2023-07-16T06:49:33;100106.66;;;22.51;52.31
73453;BME280;61687;56.232;43.854;2023-07-16T06:52:02;100113.34;;;22.54;53.21
73453;BME280;61687;56.232;43.854;2023-07-16T06:54:28;100117.44;;;22.40;52.61
73453;BME280;61687;56.232;43.854;2023-07-16T06:56:54;100110.75;;;22.02;54.33
73453;BME280;61687;56.232;43.854;2023-07-16T06:59:19;100121.66;;;21.87;54.98
73453;BME280;61687;56.232;43.854;2023-07-16T07:01:45;100117.66;;;21.75;56.05
73453;BME280;61687;56.232;43.854;2023-07-16T07:04:11;100118.97;;;21.83;56.86
73453;BME280;61687;56.232;43.854;2023-07-16T07:06:37;100117.41;;;21.82;57.04
73453;BME280;61687;56.232;43.854;2023-07-16T07:09:03;100114.03;;;22.00;56.89
73453;BME280;61687;56.232;43.854;2023-07-16T07:11:29;100109.94;;;22.14;56.06
73453;BME280;61687;56.232;43.854;2023-07-16T07:13:55;100118.19;;;22.18;56.16
73453;BME280;61687;56.232;43.854;2023-07-16T07:16:22;100113.81;;;21.95;56.40
73453;BME280;61687;56.232;43.854;2023-07-16T07:18:48;100107.38;;;21.85;56.56
73453;BME280;61687;56.232;43.854;2023-07-16T07:21:14;100108.13;;;21.98;56.72
73453;BME280;61687;56.232;43.854;2023-07-16T07:23:40;100113.28;;;22.22;56.63
73453;BME280;61687;56.232;43.854;2023-07-16T07:26:06;100113.88;;;22.04;55.86
73453;BME280;61687;56.232;43.854;2023-07-16T07:28:31;100115.03;;;21.94;54.98
73453;BME280;61687;56.232;43.854;2023-07-16T07:30:57;100104.63;;;22.07;54.63
73453;BME280;61687;56.232;43.854;2023-07-16T07:33:23;100115.59;;;22.01;54.12
73453;BME280;61687;56.232;43.854;2023-07-16T07:35:49;100119.34;;;22.08;54.56
73453;BME280;61687;56.232;43.854;2023-07-16T07:38:18;100113.06;;;22.16;55.01
73453;BME280;61687;56.232;43.854;2023-07-16T07:40:44;100116.03;;;22.00;55.33
73453;BME280;61687;56.232;43.854;2023-07-16T07:43:10;100115.59;;;22.01;56.25
73453;BME280;61687;56.232;43.854;2023-07-16T07:45:36;100124.41;;;22.00;56.38
73453;BME280;61687;56.232;43.854;2023-07-16T07:48:02;100122.25;;;21.43;57.22
73453;BME280;61687;56.232;43.854;2023-07-16T07:50:28;100130.81;;;21.62;57.94
73453;BME280;61687;56.232;43.854;2023-07-16T07:52:54;100119.66;;;21.75;57.05
73453;BME280;61687;56.232;43.854;2023-07-16T07:55:20;100127.16;;;21.78;57.44
73453;BME280;61687;56.232;43.854;2023-07-16T07:57:46;100130.06;;;21.74;57.49
73453;BME280;61687;56.232;43.854;2023-07-16T08:00:12;100126.06;;;21.49;56.83
73453;BME280;61687;56.232;43.854;2023-07-16T08:02:38;100130.38;;;21.63;57.04
73453;BME280;61687;56.232;43.854;2023-07-16T08:05:04;100127.03;;;21.68;56.75
73453;BME280;61687;56.232;43.854;2023-07-16T08:07:30;100129.59;;;21.50;57.38
73453;BME280;61687;56.232;43.854;2023-07-16T08:09:56;100122.16;;;21.47;57.87
73453;BME280;61687;56.232;43.854;2023-07-16T08:12:22;100128.03;;;21.62;57.78
73453;BME280;61687;56.232;43.854;2023-07-16T08:14:48;100121.66;;;21.87;57.65
73453;BME280;61687;56.232;43.854;2023-07-16T08:17:13;100123.31;;;21.97;57.34
73453;BME280;61687;56.232;43.854;2023-07-16T08:19:39;100121.16;;;22.01;57.50
73453;BME280;61687;56.232;43.854;2023-07-16T08:22:05;100118.84;;;22.22;57.38
73453;BME280;61687;56.232;43.854;2023-07-16T08:24:31;100117.53;;;22.14;56.84
73453;BME280;61687;56.232;43.854;2023-07-16T08:26:57;100116.44;;;22.11;57.51
73453;BME280;61687;56.232;43.854;2023-07-16T08:29:22;100129.53;;;22.01;58.27
73453;BME280;61687;56.232;43.854;2023-07-16T08:31:48;100121.16;;;22.01;57.68
73453;BME280;61687;56.232;43.854;2023-07-16T08:34:14;100115.94;;;21.91;57.17
73453;BME280;61687;56.232;43.854;2023-07-16T08:36:39;100118.66;;;21.81;58.21
73453;BME280;61687;56.232;43.854;2023-07-16T08:39:05;100123.22;;;21.88;57.78
73453;BME280;61687;56.232;43.854;2023-07-16T08:41:33;100123.78;;;21.83;57.94
73453;BME280;61687;56.232;43.854;2023-07-16T08:43:58;100120.41;;;21.88;57.78
73453;BME280;61687;56.232;43.854;2023-07-16T08:46:24;100136.94;;;21.82;58.27
73453;BME280;61687;56.232;43.854;2023-07-16T08:48:51;100138.53;;;21.70;58.22
73453;BME280;61687;56.232;43.854;2023-07-16T08:51:17;100141.97;;;21.62;58.31
73453;BME280;61687;56.232;43.854;2023-07-16T08:53:47;100133.88;;;21.41;58.40
73453;BME280;61687;56.232;43.854;2023-07-16T08:56:13;100135.19;;;21.37;59.19
73453;BME280;61687;56.232;43.854;2023-07-16T08:58:38;100146.66;;;21.52;58.87
73453;BME280;61687;56.232;43.854;2023-07-16T09:01:07;100145.34;;;21.43;56.95
73453;BME280;61687;56.232;43.854;2023-07-16T09:03:33;100146.78;;;20.96;55.61
73453;BME280;61687;56.232;43.854;2023-07-16T09:05:58;100150.44;;;20.93;53.58
73453;BME280;61687;56.232;43.854;2023-07-16T09:08:24;100147.34;;;20.91;51.67
73453;BME280;61687;56.232;43.854;2023-07-16T09:10:55;100151.69;;;20.92;51.31
73453;BME280;61687;56.232;43.854;2023-07-16T09:13:21;100148.13;;;20.92;52.02
73453;BME280;61687;56.232;43.854;2023-07-16T09:15:52;100157.50;;;21.11;52.75
73453;BME280;61687;56.232;43.854;2023-07-16T09:18:22;100158.50;;;21.17;53.21
73453;BME280;61687;56.232;43.854;2023-07-16T09:20:58;100154.28;;;21.12;53.58
73453;BME280;61687;56.232;43.854;2023-07-16T09:23:26;100154.59;;;21.01;54.23
73453;BME280;61687;56.232;43.854;2023-07-16T09:25:55;100153.38;;;21.15;54.18
73453;BME280;61687;56.232;43.854;2023-07-16T09:28:22;100166.09;;;21.42;54.63
73453;BME280;61687;56.232;43.854;2023-07-16T09:30:49;100165.53;;;21.73;54.22
73453;BME280;61687;56.232;43.854;2023-07-16T09:33:16;100159.44;;;22.01;53.36
73453;BME280;61687;56.232;43.854;2023-07-16T09:35:43;100173.06;;;21.99;53.58
73453;BME280;61687;56.232;43.854;2023-07-16T09:38:10;100166.53;;;21.80;53.58
73453;BME280;61687;56.232;43.854;2023-07-16T09:40:37;100171.88;;;21.61;54.38
73453;BME280;61687;56.232;43.854;2023-07-16T09:43:03;100175.25;;;21.69;54.09
73453;BME280;61687;56.232;43.854;2023-07-16T09:45:30;100176.09;;;21.53;54.26
73453;BME280;61687;56.232;43.854;2023-07-16T09:47:56;100170.97;;;21.64;54.96
73453;BME280;61687;56.232;43.854;2023-07-16T09:50:23;100174.13;;;21.66;55.38
73453;BME280;61687;56.232;43.854;2023-07-16T09:52:51;100178.22;;;21.75;55.50
73453;BME280;61687;56.232;43.854;2023-07-16T09:55:18;100178.16;;;21.65;55.89
73453;BME280;61687;56.232;43.854;2023-07-16T09:57:47;100183.06;;;21.35;57.03
73453;BME280;61687;56.232;43.854;2023-07-16T10:00:14;100178.34;;;21.32;57.67
73453;BME280;61687;56.232;43.854;2023-07-16T10:02:44;100176.47;;;21.55;57.60
73453;BME280;61687;56.232;43.854;2023-07-16T10:05:27;100184.13;;;21.64;56.73
73453;BME280;61687;56.232;43.854;2023-07-16T10:07:58;100184.53;;;21.66;56.70
73453;BME280;61687;56.232;43.854;2023-07-16T10:13:07;100178.13;;;21.52;56.27
73453;BME280;61687;56.232;43.854;2023-07-16T10:15:33;100192.31;;;21.58;55.34
73453;BME280;61687;56.232;43.854;2023-07-16T10:17:59;100180.81;;;21.82;55.18
73453;BME280;61687;56.232;43.854;2023-07-16T10:20:36;100190.41;;;21.81;54.72
73453;BME280;61687;56.232;43.854;2023-07-16T10:23:15;100190.84;;;21.79;54.54
73453;BME280;61687;56.232;43.854;2023-07-16T10:25:58;100180.16;;;21.78;55.05
73453;BME280;61687;56.232;43.854;2023-07-16T10:28:24;100180.91;;;21.52;55.57
73453;BME280;61687;56.232;43.854;2023-07-16T10:30:50;100195.97;;;21.29;55.09
73453;BME280;61687;56.232;43.854;2023-07-16T10:33:16;100194.63;;;21.21;55.96
73453;BME280;61687;56.232;43.854;2023-07-16T10:35:42;100186.59;;;21.36;55.50
73453;BME280;61687;56.232;43.854;2023-07-16T10:38:08;100192.97;;;21.23;56.08
73453;BME280;61687;56.232;43.854;2023-07-16T10:40:45;100194.06;;;21.13;56.76
73453;BME280;61687;56.232;43.854;2023-07-16T10:43:12;100203.06;;;21.04;57.04
73453;BME280;61687;56.232;43.854;2023-07-16T10:45:38;100197.28;;;21.11;57.37
73453;BME280;61687;56.232;43.854;2023-07-16T10:48:04;100196.75;;;21.16;57.65
73453;BME280;61687;56.232;43.854;2023-07-16T10:50:34;100192.84;;;21.27;57.62
73453;BME280;61687;56.232;43.854;2023-07-16T10:53:00;100202.19;;;21.20;57.84
73453;BME280;61687;56.232;43.854;2023-07-16T10:55:28;100199.53;;;21.29;58.05
73453;BME280;61687;56.232;43.854;2023-07-16T10:57:55;100198.66;;;21.33;58.01
73453;BME280;61687;56.232;43.854;2023-07-16T11:00:22;100204.22;;;21.20;58.11
73453;BME280;61687;56.232;43.854;2023-07-16T11:02:50;100202.66;;;21.19;58.22
73453;BME280;61687;56.232;43.854;2023-07-16T11:05:17;100203.66;;;21.25;58.19
73453;BME280;61687;56.232;43.854;2023-07-16T11:07:44;100199.88;;;21.32;58.19
73453;BME280;61687;56.232;43.854;2023-07-16T11:10:11;100206.84;;;21.10;58.63
73453;BME280;61687;56.232;43.854;2023-07-16T11:12:36;100203.53;;;21.02;58.85
73453;BME280;61687;56.232;43.854;2023-07-16T11:15:02;100212.75;;;20.99;59.10
73453;BME280;61687;56.232;43.854;2023-07-16T11:17:29;100210.84;;;20.96;59.28
73453;BME280;61687;56.232;43.854;2023-07-16T11:19:55;100215.13;;;21.14;58.84
73453;BME280;61687;56.232;43.854;2023-07-16T11:22:26;100216.00;;;21.11;59.03
73453;BME280;61687;56.232;43.854;2023-07-16T11:24:55;100222.91;;;21.06;58.56
73453;BME280;61687;56.232;43.854;2023-07-16T11:27:29;100231.19;;;20.80;59.01
73453;BME280;61687;56.232;43.854;2023-07-16T11:29:57;100208.69;;;20.58;59.69
73453;BME280;61687;56.232;43.854;2023-07-16T11:32:30;100218.09;;;20.94;59.34
73453;BME280;61687;56.232;43.854;2023-07-16T11:34:58;100212.69;;;21.29;58.24
73453;BME280;61687;56.232;43.854;2023-07-16T11:37:32;100221.63;;;21.50;57.44
73453;BME280;61687;56.232;43.854;2023-07-16T11:40:00;100213.50;;;21.68;57.30
73453;BME280;61687;56.232;43.854;2023-07-16T11:42:32;100209.38;;;21.73;56.57
73453;BME280;61687;56.232;43.854;2023-07-16T11:44:58;100205.59;;;21.67;56.20
73453;BME280;61687;56.232;43.854;2023-07-16T11:47:25;100205.63;;;22.02;55.42
73453;BME280;61687;56.232;43.854;2023-07-16T11:49:51;100217.78;;;22.56;54.51
73453;BME280;61687;56.232;43.854;2023-07-16T11:52:23;100209.16;;;22.64;53.52
73453;BME280;61687;56.232;43.854;2023-07-16T11:54:49;100214.34;;;22.52;53.87
73453;BME280;61687;56.232;43.854;2023-07-16T11:57:15;100206.38;;;22.64;53.75
73453;BME280;61687;56.232;43.854;2023-07-16T11:59:41;100206.88;;;22.49;53.96
73453;BME280;61687;56.232;43.854;2023-07-16T12:02:07;100211.88;;;22.54;54.46
73453;BME280;61687;56.232;43.854;2023-07-16T12:04:34;100216.53;;;22.57;54.08
73453;BME280;61687;56.232;43.854;2023-07-16T12:07:00;100212.13;;;22.47;53.91
73453;BME280;61687;56.232;43.854;2023-07-16T12:09:25;100202.00;;;22.27;54.71
73453;BME280;61687;56.232;43.854;2023-07-16T12:11:51;100202.31;;;22.07;55.29
73453;BME280;61687;56.232;43.854;2023-07-16T12:14:17;100207.69;;;22.24;55.42
73453;BME280;61687;56.232;43.854;2023-07-16T12:16:43;100201.69;;;22.25;55.47
73453;BME280;61687;56.232;43.854;2023-07-16T12:19:09;100221.28;;;22.35;54.77
73453;BME280;61687;56.232;43.854;2023-07-16T12:21:36;100210.31;;;22.18;54.58
73453;BME280;61687;56.232;43.854;2023-07-16T12:24:01;100215.91;;;22.18;55.37
73453;BME280;61687;56.232;43.854;2023-07-16T12:26:27;100218.78;;;22.14;55.83
73453;BME280;61687;56.232;43.854;2023-07-16T12:28:53;100212.00;;;22.02;55.45
73453;BME280;61687;56.232;43.854;2023-07-16T12:31:19;100208.09;;;22.00;55.40
73453;BME280;61687;56.232;43.854;2023-07-16T12:33:48;100213.59;;;21.91;55.59
73453;BME280;61687;56.232;43.854;2023-07-16T12:36:14;100222.75;;;21.78;55.55
73453;BME280;61687;56.232;43.854;2023-07-16T12:38:41;100219.84;;;21.82;56.34
73453;BME280;61687;56.232;43.854;2023-07-16T12:41:07;100230.13;;;21.85;55.95
73453;BME280;61687;56.232;43.854;2023-07-16T12:43:33;100222.75;;;21.65;56.10
73453;BME280;61687;56.232;43.854;2023-07-16T12:46:04;100223.88;;;21.55;55.76